createdAt,value
2018-12-07T00:01:11.464Z,10.70
2018-12-07T00:03:40.379Z,10.70
2018-12-07T00:06:09.265Z,10.70
2018-12-07T00:08:38.242Z,10.70
2018-12-07T00:11:07.280Z,10.70
2018-12-07T00:13:36.338Z,10.70
2018-12-07T00:16:05.266Z,10.70
2018-12-07T00:18:34.253Z,10.70
2018-12-07T00:21:03.294Z,10.80
2018-12-07T00:23:32.252Z,10.80
2018-12-07T00:26:01.127Z,10.80
2018-12-07T00:28:30.041Z,10.80
2018-12-07T00:30:59.039Z,10.80
2018-12-07T00:33:27.987Z,10.80
2018-12-07T00:35:56.991Z,10.80
2018-12-07T00:38:25.881Z,10.80
2018-12-07T00:40:54.833Z,10.80
2018-12-07T00:43:23.802Z,10.80
2018-12-07T00:45:52.724Z,10.80
2018-12-07T00:48:21.752Z,10.80
2018-12-07T00:50:50.628Z,10.80
2018-12-07T00:53:19.516Z,10.80
2018-12-07T00:55:48.434Z,10.80
2018-12-07T00:58:17.365Z,10.80
2018-12-07T01:00:46.532Z,10.80
2018-12-07T01:03:15.412Z,10.80
2018-12-07T01:05:44.391Z,10.80
2018-12-07T01:08:13.361Z,10.90
2018-12-07T01:10:42.294Z,10.90
2018-12-07T01:13:11.172Z,10.90
2018-12-07T01:15:40.137Z,10.90
2018-12-07T01:18:09.116Z,10.90
2018-12-07T01:20:38.045Z,10.90
2018-12-07T01:23:07.013Z,10.90
2018-12-07T01:25:36.052Z,10.90
2018-12-07T01:28:05.000Z,10.90
2018-12-07T01:30:34.004Z,11.00
2018-12-07T01:33:02.909Z,11.00
2018-12-07T01:35:31.793Z,11.00
2018-12-07T01:38:00.736Z,11.00
2018-12-07T01:40:29.753Z,10.90
2018-12-07T01:42:58.646Z,11.00
2018-12-07T01:45:27.567Z,10.90
2018-12-07T01:47:56.501Z,10.90
2018-12-07T01:50:25.424Z,10.90
2018-12-07T01:52:54.337Z,10.90
2018-12-07T01:55:23.287Z,10.90
2018-12-07T01:57:52.177Z,10.80
2018-12-07T02:00:21.204Z,10.80
2018-12-07T02:02:50.156Z,10.80
2018-12-07T02:05:19.066Z,10.80
2018-12-07T02:07:47.988Z,10.80
2018-12-07T02:10:16.870Z,10.80
2018-12-07T02:12:45.825Z,10.80
2018-12-07T02:15:14.832Z,10.80
2018-12-07T02:17:43.745Z,10.80
2018-12-07T02:20:12.631Z,10.80
2018-12-07T02:22:41.524Z,10.80
2018-12-07T02:25:10.457Z,10.80
2018-12-07T02:27:44.705Z,10.80
2018-12-07T02:30:13.744Z,10.80
2018-12-07T02:32:42.668Z,10.70
2018-12-07T02:35:11.741Z,10.70
2018-12-07T02:37:40.673Z,10.70
2018-12-07T02:40:09.590Z,10.70
2018-12-07T02:42:38.560Z,10.70
2018-12-07T02:45:07.542Z,10.70
2018-12-07T02:47:36.490Z,10.60
2018-12-07T02:50:05.695Z,10.60
2018-12-07T02:52:34.741Z,10.60
2018-12-07T02:55:03.976Z,10.60
2018-12-07T02:57:32.861Z,10.60
2018-12-07T03:00:01.773Z,10.60
2018-12-07T03:02:31.718Z,10.60
2018-12-07T03:05:00.867Z,10.60
2018-12-07T03:07:29.931Z,10.60
2018-12-07T03:09:58.825Z,10.60
2018-12-07T03:12:27.736Z,10.60
2018-12-07T03:14:56.696Z,10.60
2018-12-07T03:17:25.632Z,10.60
2018-12-07T03:19:54.572Z,10.60
2018-12-07T03:22:23.616Z,10.60
2018-12-07T03:24:52.557Z,10.60
2018-12-07T03:27:21.563Z,10.60
2018-12-07T03:29:50.537Z,10.70
2018-12-07T03:32:19.448Z,10.70
2018-12-07T03:34:48.449Z,10.70
2018-12-07T03:37:17.427Z,10.70
2018-12-07T03:39:46.421Z,10.60
2018-12-07T03:42:15.428Z,10.60
2018-12-07T03:44:44.380Z,10.70
2018-12-07T03:47:13.293Z,10.70
2018-12-07T03:49:42.517Z,10.70
2018-12-07T03:52:11.406Z,10.70
2018-12-07T03:54:40.500Z,10.70
2018-12-07T03:57:09.473Z,10.70
2018-12-07T03:59:38.501Z,10.60
2018-12-07T04:02:07.398Z,10.60
2018-12-07T04:04:36.273Z,10.60
2018-12-07T04:07:05.778Z,10.60
2018-12-07T04:09:34.740Z,10.60
2018-12-07T04:12:03.923Z,10.60
2018-12-07T04:14:32.782Z,10.60
2018-12-07T04:17:01.633Z,10.60
2018-12-07T04:19:30.584Z,10.60
2018-12-07T04:21:59.518Z,10.60
2018-12-07T04:24:28.415Z,10.70
2018-12-07T04:26:57.436Z,10.70
2018-12-07T04:29:26.405Z,10.70
2018-12-07T04:31:55.451Z,10.70
2018-12-07T04:34:24.581Z,10.70
2018-12-07T04:36:53.517Z,10.70
2018-12-07T04:39:22.432Z,10.80
2018-12-07T04:41:51.353Z,10.80
2018-12-07T04:44:20.308Z,10.80
2018-12-07T04:46:51.173Z,10.80
2018-12-07T04:49:20.137Z,10.80
2018-12-07T04:51:49.144Z,10.80
2018-12-07T04:54:18.073Z,10.80
2018-12-07T04:56:46.967Z,10.90
2018-12-07T04:59:15.846Z,10.90
2018-12-07T05:01:44.854Z,10.90
2018-12-07T05:04:13.768Z,10.90
2018-12-07T05:06:42.856Z,10.90
2018-12-07T05:09:11.787Z,10.90
2018-12-07T05:11:40.900Z,10.90
2018-12-07T05:14:09.793Z,11.00
2018-12-07T05:16:38.852Z,11.00
2018-12-07T05:19:07.771Z,11.00
2018-12-07T05:21:37.017Z,10.90
2018-12-07T05:24:06.002Z,10.90
2018-12-07T05:26:34.928Z,10.90
2018-12-07T05:29:03.972Z,10.90
2018-12-07T05:31:32.885Z,10.90
2018-12-07T05:34:01.833Z,10.90
2018-12-07T05:36:30.830Z,10.90
2018-12-07T05:38:59.741Z,10.90
2018-12-07T05:41:28.642Z,10.80
2018-12-07T05:43:58.221Z,10.70
2018-12-07T05:46:28.449Z,10.70
2018-12-07T05:48:57.443Z,10.60
2018-12-07T05:51:26.501Z,10.60
2018-12-07T05:53:55.412Z,10.60
2018-12-07T05:56:24.306Z,10.50
2018-12-07T05:58:53.205Z,10.50
2018-12-07T06:01:32.228Z,10.40
2018-12-07T06:04:04.581Z,10.40
2018-12-07T06:06:39.717Z,10.40
2018-12-07T06:09:12.211Z,10.40
2018-12-07T06:11:47.031Z,10.30
2018-12-07T06:14:15.965Z,10.30
2018-12-07T06:16:44.878Z,10.30
2018-12-07T06:19:13.828Z,10.30
2018-12-07T06:21:46.296Z,10.30
2018-12-07T06:24:15.444Z,10.30
2018-12-07T06:26:46.237Z,10.30
2018-12-07T06:29:15.229Z,10.30
2018-12-07T06:31:48.000Z,10.30
2018-12-07T06:34:16.962Z,10.30
2018-12-07T06:36:45.886Z,10.20
2018-12-07T06:39:34.170Z,10.20
2018-12-07T06:42:03.038Z,10.20
2018-12-07T06:44:31.929Z,10.20
2018-12-07T06:47:00.838Z,10.20
2018-12-07T06:49:29.736Z,10.30
2018-12-07T06:51:58.669Z,10.30
2018-12-07T06:54:27.896Z,10.30
2018-12-07T06:56:56.997Z,10.30
2018-12-07T06:59:25.902Z,10.30
2018-12-07T07:01:54.990Z,10.40
2018-12-07T07:04:23.909Z,10.40
2018-12-07T07:06:52.869Z,10.40
2018-12-07T07:09:21.760Z,10.40
2018-12-07T07:11:50.721Z,10.50
2018-12-07T07:14:19.585Z,10.50
2018-12-07T07:16:48.494Z,10.50
2018-12-07T07:19:17.516Z,10.60
2018-12-07T07:21:49.404Z,10.60
2018-12-07T07:24:19.348Z,10.60
2018-12-07T07:26:48.237Z,10.60
2018-12-07T07:29:17.108Z,10.60
2018-12-07T07:31:45.989Z,10.70
2018-12-07T07:34:14.873Z,10.70
2018-12-07T07:36:43.831Z,10.70
2018-12-07T07:39:12.787Z,10.80
2018-12-07T07:41:41.681Z,10.80
2018-12-07T07:44:10.568Z,10.80
2018-12-07T07:46:39.582Z,10.80
2018-12-07T07:49:08.439Z,10.90
2018-12-07T07:51:37.373Z,10.90
2018-12-07T07:54:06.276Z,10.90
2018-12-07T07:56:35.138Z,10.90
2018-12-07T07:59:04.039Z,10.90
2018-12-07T08:01:32.924Z,10.90
2018-12-07T08:04:01.843Z,10.90
2018-12-07T08:06:30.733Z,10.90
2018-12-07T08:09:00.745Z,10.90
2018-12-07T08:11:29.704Z,10.90
2018-12-07T08:13:58.586Z,11.00
2018-12-07T08:16:27.578Z,11.00
2018-12-07T08:18:56.546Z,11.10
2018-12-07T08:21:25.434Z,11.10
2018-12-07T08:23:54.427Z,11.10
2018-12-07T08:26:23.344Z,11.10
2018-12-07T08:28:52.236Z,11.10
2018-12-07T08:31:21.186Z,11.20
2018-12-07T08:33:50.811Z,11.20
2018-12-07T08:36:19.742Z,11.20
2018-12-07T08:38:48.706Z,11.20
2018-12-07T08:41:17.697Z,11.20
2018-12-07T08:43:46.605Z,11.20
2018-12-07T08:46:15.542Z,11.30
2018-12-07T08:48:44.417Z,11.20
2018-12-07T08:51:13.768Z,11.30
2018-12-07T08:53:42.652Z,11.30
2018-12-07T08:56:11.641Z,11.30
2018-12-07T08:58:43.693Z,11.30
2018-12-07T09:01:12.572Z,11.40
2018-12-07T09:03:41.546Z,11.40
2018-12-07T09:06:10.429Z,11.50
2018-12-07T09:08:39.541Z,11.50
2018-12-07T09:11:08.597Z,11.50
2018-12-07T09:13:37.596Z,11.60
2018-12-07T09:16:06.518Z,11.60
2018-12-07T09:18:35.398Z,11.60
2018-12-07T09:21:04.374Z,11.60
2018-12-07T09:23:33.332Z,11.70
2018-12-07T09:26:02.294Z,11.70
2018-12-07T09:28:31.152Z,11.80
2018-12-07T09:31:00.108Z,11.80
2018-12-07T09:33:28.998Z,11.80
2018-12-07T09:35:57.937Z,11.80
2018-12-07T09:38:26.833Z,11.80
2018-12-07T09:40:55.788Z,11.90
2018-12-07T09:43:24.791Z,11.80
2018-12-07T09:45:53.697Z,11.90
2018-12-07T09:48:22.613Z,11.90
2018-12-07T09:50:51.529Z,12.00
2018-12-07T09:53:20.511Z,12.00
2018-12-07T09:55:49.441Z,12.00
2018-12-07T09:58:18.385Z,12.00
2018-12-07T10:00:47.284Z,12.00
2018-12-07T10:03:16.197Z,12.10
2018-12-07T10:05:45.090Z,12.10
2018-12-07T10:08:13.961Z,12.10
2018-12-07T10:10:42.932Z,12.10
2018-12-07T10:13:11.926Z,12.10
2018-12-07T10:15:40.896Z,12.10
2018-12-07T10:18:09.798Z,12.10
2018-12-07T10:20:38.672Z,12.10
2018-12-07T10:23:07.547Z,12.10
2018-12-07T10:25:36.439Z,12.10
2018-12-07T10:28:05.407Z,12.00
2018-12-07T10:30:34.297Z,12.00
2018-12-07T10:33:03.209Z,12.00
2018-12-07T10:35:32.160Z,12.10
2018-12-07T10:38:01.068Z,12.10
2018-12-07T10:40:29.937Z,12.10
2018-12-07T10:42:58.865Z,12.20
2018-12-07T10:45:27.766Z,12.30
2018-12-07T10:47:56.656Z,12.50
2018-12-07T10:50:25.652Z,12.60
2018-12-07T10:52:54.521Z,12.80
2018-12-07T10:55:23.515Z,12.90
2018-12-07T10:57:52.551Z,13.10
2018-12-07T11:00:26.902Z,13.20
2018-12-07T11:03:01.109Z,13.30
2018-12-07T11:05:35.317Z,13.40
2018-12-07T11:08:09.857Z,13.50
2018-12-07T11:10:44.220Z,13.60
2018-12-07T11:13:18.502Z,13.80
2018-12-07T11:15:52.664Z,14.00
2018-12-07T11:18:26.996Z,14.10
2018-12-07T11:21:01.370Z,14.10
2018-12-07T11:23:35.779Z,14.20
2018-12-07T11:26:10.144Z,14.30
2018-12-07T11:28:49.198Z,14.80
2018-12-07T11:31:23.452Z,15.20
2018-12-07T11:33:56.618Z,15.40
2018-12-07T11:36:25.514Z,15.30
2018-12-07T11:38:54.386Z,15.10
2018-12-07T11:41:23.373Z,15.10
2018-12-07T11:43:54.244Z,15.00
2018-12-07T11:46:23.117Z,14.80
2018-12-07T11:48:52.068Z,14.70
2018-12-07T11:51:20.947Z,14.40
2018-12-07T11:53:49.806Z,14.20
2018-12-07T11:56:18.678Z,14.10
2018-12-07T11:58:47.574Z,14.00
2018-12-07T12:01:16.565Z,14.30
2018-12-07T12:03:45.429Z,15.30
2018-12-07T12:06:14.318Z,15.70
2018-12-07T12:08:44.462Z,15.50
2018-12-07T12:11:15.438Z,15.20
2018-12-07T12:13:44.455Z,15.10
2018-12-07T12:16:13.299Z,15.50
2018-12-07T12:18:42.209Z,16.30
2018-12-07T12:21:11.158Z,17.20
2018-12-07T12:23:40.346Z,17.40
2018-12-07T12:26:09.292Z,16.90
2018-12-07T12:28:38.288Z,16.20
2018-12-07T12:31:07.161Z,15.90
2018-12-07T12:33:36.037Z,15.60
2018-12-07T12:36:05.196Z,15.40
2018-12-07T12:38:34.097Z,15.10
2018-12-07T12:41:02.996Z,15.00
2018-12-07T12:43:31.915Z,14.80
2018-12-07T12:46:00.938Z,14.60
2018-12-07T12:48:29.841Z,14.30
2018-12-07T12:51:00.156Z,14.10
2018-12-07T12:53:30.105Z,13.90
2018-12-07T12:55:58.988Z,13.80
2018-12-07T12:58:27.954Z,13.60
2018-12-07T13:00:56.869Z,13.50
2018-12-07T13:03:25.760Z,13.30
2018-12-07T13:05:54.653Z,13.10
2018-12-07T13:08:23.554Z,13.10
2018-12-07T13:10:52.551Z,13.00
2018-12-07T13:13:21.453Z,12.90
2018-12-07T13:15:50.374Z,12.90
2018-12-07T13:18:19.311Z,12.90
2018-12-07T13:20:48.317Z,13.00
2018-12-07T13:23:17.258Z,13.00
2018-12-07T13:25:46.169Z,13.10
2018-12-07T13:28:15.049Z,13.10
2018-12-07T13:30:44.011Z,13.10
2018-12-07T13:33:12.936Z,13.10
2018-12-07T13:35:41.887Z,13.10
2018-12-07T13:38:11.008Z,13.10
2018-12-07T13:40:40.019Z,13.00
2018-12-07T13:43:09.301Z,13.00
2018-12-07T13:45:38.581Z,12.90
2018-12-07T13:48:07.807Z,12.80
2018-12-07T13:50:41.417Z,12.80
2018-12-07T13:53:10.402Z,12.70
2018-12-07T13:55:39.385Z,12.70
2018-12-07T13:58:10.546Z,12.60
2018-12-07T14:00:39.711Z,12.60
2018-12-07T14:03:08.843Z,12.60
2018-12-07T14:05:38.002Z,12.60
2018-12-07T14:08:07.175Z,12.50
2018-12-07T14:10:36.329Z,12.50
2018-12-07T14:13:05.417Z,12.50
2018-12-07T14:15:34.363Z,12.40
2018-12-07T14:18:03.422Z,12.40
2018-12-07T14:20:32.428Z,12.40
2018-12-07T14:23:01.701Z,12.50
2018-12-07T14:25:30.744Z,12.60
2018-12-07T14:27:59.760Z,12.70
2018-12-07T14:30:28.838Z,12.90
2018-12-07T14:32:57.879Z,12.90
2018-12-07T14:35:26.777Z,12.90
2018-12-07T14:37:56.002Z,12.90
2018-12-07T14:40:25.126Z,12.90
2018-12-07T14:42:54.241Z,12.80
2018-12-07T14:45:24.385Z,12.70
2018-12-07T14:47:53.622Z,12.60
2018-12-07T14:50:22.562Z,12.50
2018-12-07T14:52:51.553Z,12.40
2018-12-07T14:55:20.615Z,12.40
2018-12-07T14:57:50.574Z,12.40
2018-12-07T15:00:19.599Z,12.30
2018-12-07T15:02:48.724Z,12.30
2018-12-07T15:05:17.870Z,12.20
2018-12-07T15:07:46.752Z,12.20
2018-12-07T15:10:15.763Z,12.20
2018-12-07T15:12:44.856Z,12.20
2018-12-07T15:15:13.853Z,12.20
2018-12-07T15:17:42.854Z,12.20
2018-12-07T15:20:12.186Z,12.10
2018-12-07T15:22:41.098Z,12.10
2018-12-07T15:25:10.038Z,12.10
2018-12-07T15:27:39.263Z,12.10
2018-12-07T15:30:09.537Z,12.10
2018-12-07T15:32:38.759Z,12.00
2018-12-07T15:35:08.569Z,12.00
2018-12-07T15:37:37.584Z,12.00
2018-12-07T15:40:09.779Z,12.00
2018-12-07T15:42:39.910Z,11.90
2018-12-07T15:45:09.516Z,12.00
2018-12-07T15:47:38.639Z,12.00
2018-12-07T15:50:09.048Z,12.00
2018-12-07T15:52:38.231Z,11.90
2018-12-07T15:55:07.557Z,11.90
2018-12-07T15:57:36.476Z,11.90
2018-12-07T16:00:06.697Z,11.90
2018-12-07T16:02:35.678Z,11.80
2018-12-07T16:05:05.078Z,11.80
2018-12-07T16:07:34.239Z,11.80
2018-12-07T16:10:04.248Z,11.70
2018-12-07T16:12:34.510Z,11.60
2018-12-07T16:15:03.659Z,11.50
2018-12-07T16:17:32.856Z,11.50
2018-12-07T16:20:02.198Z,11.40
2018-12-07T16:22:31.454Z,11.40
2018-12-07T16:25:00.674Z,11.40
2018-12-07T16:27:29.653Z,11.30
2018-12-07T16:29:58.866Z,11.30
2018-12-07T16:32:27.941Z,11.20
2018-12-07T16:34:57.037Z,11.20
2018-12-07T16:37:25.971Z,11.20
2018-12-07T16:39:54.935Z,11.10
2018-12-07T16:42:24.022Z,11.10
2018-12-07T16:44:53.080Z,11.10
2018-12-07T16:47:22.156Z,11.00
2018-12-07T16:49:51.434Z,11.10
2018-12-07T16:52:20.912Z,11.10
2018-12-07T16:54:50.003Z,11.00
2018-12-07T16:57:19.283Z,11.10
2018-12-07T16:59:48.242Z,11.10
2018-12-07T17:02:17.388Z,11.10
2018-12-07T17:04:46.310Z,11.10
2018-12-07T17:07:15.244Z,11.10
2018-12-07T17:09:44.420Z,11.20
2018-12-07T17:12:13.508Z,11.20
2018-12-07T17:14:42.498Z,11.20
2018-12-07T17:17:11.459Z,11.20
2018-12-07T17:19:40.508Z,11.20
2018-12-07T17:22:09.581Z,11.20
2018-12-07T17:24:38.671Z,11.20
2018-12-07T17:27:07.588Z,11.20
2018-12-07T17:29:36.976Z,11.20
2018-12-07T17:32:05.987Z,11.20
2018-12-07T17:34:34.900Z,11.20
2018-12-07T17:37:03.980Z,11.20
2018-12-07T17:39:33.078Z,11.20
2018-12-07T17:42:02.288Z,11.20
2018-12-07T17:44:31.548Z,11.20
2018-12-07T17:47:00.643Z,11.20
2018-12-07T17:49:30.725Z,11.20
2018-12-07T17:52:00.309Z,11.20
2018-12-07T17:54:29.480Z,11.20
2018-12-07T17:56:58.826Z,11.20
2018-12-07T17:59:27.781Z,11.20
2018-12-07T18:01:56.672Z,11.20
2018-12-07T18:04:25.561Z,11.20
2018-12-07T18:06:54.539Z,11.20
2018-12-07T18:09:23.518Z,11.20
2018-12-07T18:11:52.504Z,11.30
2018-12-07T18:14:21.557Z,11.30
2018-12-07T18:16:50.798Z,11.30
2018-12-07T18:19:19.796Z,11.20
2018-12-07T18:21:49.006Z,11.30
2018-12-07T18:24:49.411Z,11.30
2018-12-07T18:27:33.789Z,11.30
2018-12-07T18:30:10.565Z,11.30
2018-12-07T18:32:39.246Z,11.30
2018-12-07T18:35:07.791Z,11.30
2018-12-07T18:37:49.131Z,11.30
2018-12-07T18:40:17.261Z,11.30
2018-12-07T18:42:47.675Z,11.20
2018-12-07T18:45:21.479Z,11.10
2018-12-07T18:47:51.225Z,11.00
2018-12-07T18:50:19.625Z,10.90
2018-12-07T18:52:48.222Z,10.80
2018-12-07T18:55:16.367Z,10.80
2018-12-07T18:57:44.556Z,10.60
2018-12-07T19:00:12.924Z,10.50
2018-12-07T19:02:41.448Z,10.50
2018-12-07T19:05:09.986Z,10.40
2018-12-07T19:08:00.486Z,10.30
2018-12-07T19:10:48.620Z,10.30
2018-12-07T19:13:43.481Z,10.30
2018-12-07T19:16:55.715Z,10.30
2018-12-07T19:19:33.224Z,10.30
2018-12-07T19:22:01.924Z,10.30
2018-12-07T19:24:30.801Z,10.20
2018-12-07T19:27:11.013Z,10.20
2018-12-07T19:32:39.057Z,10.10
2018-12-07T19:35:07.342Z,10.10
2018-12-07T19:37:39.126Z,10.10
2018-12-07T19:40:10.885Z,10.10
2018-12-07T19:42:40.947Z,10.10
2018-12-07T19:45:09.648Z,10.10
2018-12-07T19:47:40.423Z,10.10
2018-12-07T19:50:10.081Z,10.10
2018-12-07T19:53:01.521Z,10.10
2018-12-07T19:56:01.596Z,10.10
2018-12-07T19:58:55.799Z,10.10
2018-12-07T20:01:41.636Z,10.20
2018-12-07T20:04:16.304Z,10.20
2018-12-07T20:06:49.691Z,10.30
2018-12-07T20:09:18.178Z,10.30
2018-12-07T20:11:58.096Z,10.30
2018-12-07T20:14:49.117Z,10.40
2018-12-07T20:17:20.312Z,10.40
2018-12-07T20:19:50.392Z,10.40
2018-12-07T20:22:19.192Z,10.50
2018-12-07T20:24:47.495Z,10.50
2018-12-07T20:27:42.311Z,10.50
2018-12-07T20:30:30.784Z,10.50
2018-12-07T20:33:22.872Z,10.50
2018-12-07T20:36:03.876Z,10.50
2018-12-07T20:38:32.414Z,10.50
2018-12-07T20:41:00.852Z,10.40
2018-12-07T20:43:29.517Z,10.40
2018-12-07T20:45:58.426Z,10.40
2018-12-07T20:48:26.702Z,10.30
2018-12-07T20:50:55.922Z,10.20
2018-12-07T20:53:38.389Z,10.10
2018-12-07T20:56:07.505Z,10.00
2018-12-07T20:58:49.687Z,9.80
2018-12-07T21:01:17.821Z,9.80
2018-12-07T21:04:20.908Z,9.70
2018-12-07T21:11:08.845Z,9.60
2018-12-07T21:13:42.493Z,9.60
2018-12-07T21:18:22.526Z,9.40
2018-12-07T21:20:50.748Z,9.20
2018-12-07T21:23:18.930Z,8.90
2018-12-07T21:25:47.056Z,8.80
2018-12-07T21:28:16.086Z,8.70
2018-12-07T21:30:50.578Z,8.60
2018-12-07T21:33:22.089Z,8.60
2018-12-07T21:36:47.947Z,8.50
2018-12-07T21:39:23.063Z,8.50
2018-12-07T21:41:51.335Z,8.40
2018-12-07T21:44:19.625Z,8.40
2018-12-07T21:46:48.067Z,8.40
2018-12-07T21:49:16.414Z,8.40
2018-12-07T21:51:51.144Z,8.40
2018-12-07T21:54:19.389Z,8.40
2018-12-07T21:56:47.535Z,8.40
2018-12-07T21:59:15.671Z,8.40
2018-12-07T22:01:43.766Z,8.30
2018-12-07T22:04:12.036Z,8.30
2018-12-07T22:06:40.411Z,8.20
2018-12-07T22:09:08.739Z,8.10
2018-12-07T22:11:38.744Z,8.00
2018-12-07T22:14:06.824Z,7.90
2018-12-07T22:16:34.916Z,7.70
2018-12-07T22:19:03.272Z,7.60
2018-12-07T22:21:31.699Z,7.40
2018-12-07T22:24:00.301Z,7.20
2018-12-07T22:26:28.375Z,7.10
2018-12-07T22:28:56.497Z,7.00
2018-12-07T22:31:24.652Z,7.00
2018-12-07T22:33:53.298Z,6.90
2018-12-07T22:36:21.529Z,6.90
2018-12-07T22:38:49.643Z,6.80
2018-12-07T22:41:17.836Z,6.80
2018-12-07T22:43:46.044Z,6.80
2018-12-07T22:46:14.341Z,6.80
2018-12-07T22:48:42.541Z,6.80
2018-12-07T22:51:10.650Z,6.80
2018-12-07T22:53:38.740Z,6.80
2018-12-07T22:56:06.812Z,6.80
2018-12-07T22:58:34.886Z,6.80
2018-12-07T23:01:03.076Z,6.80
2018-12-07T23:03:33.154Z,6.80
2018-12-07T23:06:01.271Z,6.90
2018-12-07T23:11:22.167Z,6.90
2018-12-07T23:14:00.240Z,6.90
2018-12-07T23:16:29.969Z,6.90
2018-12-07T23:18:58.378Z,7.00
2018-12-07T23:21:26.480Z,7.00
2018-12-07T23:23:54.603Z,7.00
2018-12-07T23:32:08.664Z,7.00
2018-12-07T23:34:43.102Z,7.00
2018-12-07T23:37:15.327Z,7.00
2018-12-07T23:42:43.625Z,7.00
2018-12-07T23:45:13.624Z,7.00
2018-12-07T23:50:37.583Z,6.90
2018-12-07T23:56:05.593Z,7.00
2018-12-07T23:58:33.669Z,7.00
